createdAt,value
2023-03-16T00:02:46.912Z,9.17
2023-03-16T00:05:51.659Z,7.05
2023-03-16T00:08:59.186Z,10.05
2023-03-16T00:12:05.973Z,12.23
2023-03-16T00:15:09.244Z,12.23
2023-03-16T00:18:12.342Z,9.13
2023-03-16T00:21:15.290Z,9.00
2023-03-16T00:24:21.330Z,11.30
2023-03-16T00:27:26.261Z,10.18
2023-03-16T00:30:31.683Z,9.90
2023-03-16T00:33:37.860Z,10.07
2023-03-16T00:36:42.740Z,7.47
2023-03-16T00:39:47.233Z,10.13
2023-03-16T00:42:50.278Z,9.93
2023-03-16T00:46:06.808Z,7.07
2023-03-16T00:49:10.310Z,14.73
2023-03-16T00:52:15.064Z,7.87
2023-03-16T00:55:19.336Z,9.18
2023-03-16T00:58:23.484Z,10.77
2023-03-16T01:01:27.756Z,10.57
2023-03-16T01:04:30.464Z,11.63
2023-03-16T01:07:36.475Z,8.25
2023-03-16T01:10:40.790Z,7.57
2023-03-16T01:13:44.585Z,8.73
2023-03-16T01:16:47.376Z,12.47
2023-03-16T01:19:51.634Z,8.57
2023-03-16T01:22:54.390Z,9.05
2023-03-16T01:25:58.361Z,9.88
2023-03-16T01:29:02.512Z,9.85
2023-03-16T01:32:07.157Z,6.73
2023-03-16T01:35:10.388Z,7.18
2023-03-16T01:38:13.584Z,10.27
2023-03-16T01:41:17.913Z,11.10
2023-03-16T01:44:31.042Z,8.53
2023-03-16T01:47:39.271Z,12.60
2023-03-16T01:50:42.753Z,8.57
2023-03-16T01:53:49.107Z,9.90
2023-03-16T01:56:55.779Z,7.80
2023-03-16T02:00:18.851Z,8.75
2023-03-16T02:03:23.518Z,10.93
2023-03-16T02:06:26.640Z,10.13
2023-03-16T02:09:30.176Z,9.82
2023-03-16T02:12:33.376Z,8.00
2023-03-16T02:15:37.638Z,7.10
2023-03-16T02:18:40.610Z,9.30
2023-03-16T02:22:03.938Z,10.02
2023-03-16T02:25:07.650Z,7.27
2023-03-16T02:28:31.268Z,7.80
2023-03-16T02:31:34.995Z,11.10
2023-03-16T02:34:39.199Z,8.30
2023-03-16T02:37:42.305Z,8.85
2023-03-16T02:40:54.912Z,8.97
2023-03-16T02:44:04.979Z,8.02
2023-03-16T02:47:13.469Z,8.23
2023-03-16T02:50:16.661Z,9.30
2023-03-16T02:53:20.387Z,10.37
2023-03-16T02:56:23.617Z,10.63
2023-03-16T02:59:26.561Z,9.93
2023-03-16T03:02:29.825Z,5.95
2023-03-16T03:05:32.550Z,10.63
2023-03-16T03:08:36.043Z,15.77
2023-03-16T03:11:39.273Z,9.43
2023-03-16T03:14:42.491Z,11.20
2023-03-16T03:17:46.344Z,13.00
2023-03-16T03:20:49.546Z,9.75
2023-03-16T03:23:53.169Z,13.38
2023-03-16T03:26:56.231Z,10.88
2023-03-16T03:29:59.916Z,9.52
2023-03-16T03:33:04.497Z,9.47
2023-03-16T03:36:07.750Z,7.40
2023-03-16T03:39:11.255Z,9.20
2023-03-16T03:42:14.525Z,10.20
2023-03-16T03:45:18.598Z,9.03
2023-03-16T03:48:21.465Z,9.25
2023-03-16T03:51:24.502Z,10.00
2023-03-16T03:54:28.214Z,9.10
2023-03-16T03:57:31.350Z,11.32
2023-03-16T04:00:34.285Z,9.73
2023-03-16T04:03:37.588Z,10.10
2023-03-16T04:06:41.967Z,5.80
2023-03-16T04:09:45.071Z,6.75
2023-03-16T04:12:51.404Z,10.35
2023-03-16T04:15:59.312Z,7.72
2023-03-16T04:19:02.363Z,9.93
2023-03-16T04:22:06.767Z,8.67
2023-03-16T04:25:15.073Z,10.80
2023-03-16T04:28:18.825Z,8.50
2023-03-16T04:31:22.921Z,7.57
2023-03-16T04:34:26.992Z,10.13
2023-03-16T04:37:30.663Z,13.00
2023-03-16T04:40:33.796Z,12.25
2023-03-16T04:43:36.892Z,10.60
2023-03-16T04:46:40.787Z,7.05
2023-03-16T04:49:44.392Z,13.75
2023-03-16T04:52:48.378Z,8.68
2023-03-16T04:55:51.493Z,9.07
2023-03-16T04:58:57.113Z,8.03
2023-03-16T05:02:01.612Z,11.75
2023-03-16T05:05:06.045Z,13.25
2023-03-16T05:08:10.991Z,14.00
2023-03-16T05:11:14.627Z,23.23
2023-03-16T05:14:21.675Z,15.15
2023-03-16T05:17:25.730Z,12.63
2023-03-16T05:20:28.978Z,12.75
2023-03-16T05:23:32.436Z,13.30
2023-03-16T05:26:35.792Z,14.23
2023-03-16T05:29:40.413Z,12.60
2023-03-16T05:32:44.454Z,16.35
2023-03-16T05:35:48.938Z,14.13
2023-03-16T05:38:52.899Z,13.13
2023-03-16T05:41:57.314Z,12.37
2023-03-16T05:45:00.318Z,19.80
2023-03-16T05:48:05.907Z,12.40
2023-03-16T05:51:11.563Z,15.02
2023-03-16T05:54:15.147Z,12.20
2023-03-16T05:57:18.764Z,11.85
2023-03-16T06:00:23.014Z,14.35
2023-03-16T06:03:26.526Z,11.82
2023-03-16T06:06:29.692Z,11.05
2023-03-16T06:09:33.267Z,7.40
2023-03-16T06:12:38.326Z,13.67
2023-03-16T06:15:42.226Z,9.18
2023-03-16T06:18:45.206Z,13.18
2023-03-16T06:21:48.412Z,11.68
2023-03-16T06:24:52.123Z,12.83
2023-03-16T06:27:55.967Z,10.93
2023-03-16T06:30:58.967Z,11.73
2023-03-16T06:34:02.752Z,9.15
2023-03-16T06:37:05.830Z,10.45
2023-03-16T06:40:10.085Z,10.13
2023-03-16T06:43:12.877Z,9.00
2023-03-16T06:46:18.218Z,8.55
2023-03-16T06:49:21.505Z,11.07
2023-03-16T06:52:25.480Z,9.75
2023-03-16T06:55:28.394Z,10.50
2023-03-16T06:58:31.511Z,11.52
2023-03-16T07:01:34.466Z,11.55
2023-03-16T07:04:38.505Z,6.97
2023-03-16T07:07:43.103Z,7.50
2023-03-16T07:10:46.164Z,9.13
2023-03-16T07:13:49.316Z,10.52
2023-03-16T07:16:53.275Z,6.10
2023-03-16T07:19:57.178Z,6.78
2023-03-16T07:23:00.572Z,6.87
2023-03-16T07:26:03.887Z,7.40
2023-03-16T07:29:09.662Z,7.50
2023-03-16T07:32:13.117Z,9.38
2023-03-16T07:35:17.499Z,10.80
2023-03-16T07:38:22.059Z,7.50
2023-03-16T07:41:27.314Z,13.97
2023-03-16T07:44:43.325Z,9.88
2023-03-16T07:47:48.357Z,7.57
2023-03-16T07:50:51.821Z,8.13
2023-03-16T07:53:55.166Z,13.27
2023-03-16T07:56:59.339Z,10.93
2023-03-16T08:00:05.440Z,9.07
2023-03-16T08:03:16.120Z,7.93
2023-03-16T08:06:21.645Z,7.60
2023-03-16T08:09:24.607Z,9.77
2023-03-16T08:12:27.970Z,6.53
2023-03-16T08:15:34.064Z,9.23
2023-03-16T08:18:39.763Z,9.05
2023-03-16T08:22:00.386Z,12.35
2023-03-16T08:25:07.377Z,6.05
2023-03-16T08:28:11.060Z,8.07
2023-03-16T08:31:15.692Z,8.10
2023-03-16T08:34:18.967Z,10.15
2023-03-16T08:37:22.361Z,7.87
2023-03-16T08:40:30.049Z,8.27
2023-03-16T08:43:35.122Z,6.47
2023-03-16T08:46:38.032Z,8.55
2023-03-16T08:49:41.601Z,8.43
2023-03-16T08:52:45.112Z,9.52
2023-03-16T08:55:48.637Z,4.78
2023-03-16T08:58:52.391Z,6.60
2023-03-16T09:01:55.524Z,7.47
2023-03-16T09:04:59.196Z,4.90
2023-03-16T09:08:04.204Z,8.52
2023-03-16T09:11:09.754Z,6.28
2023-03-16T09:14:15.617Z,7.03
2023-03-16T09:17:18.825Z,15.48
2023-03-16T09:20:26.218Z,8.70
2023-03-16T09:23:30.463Z,9.00
2023-03-16T09:26:33.751Z,6.35
2023-03-16T09:29:36.762Z,29.80
2023-03-16T09:32:39.950Z,13.57
2023-03-16T09:35:45.141Z,8.27
2023-03-16T09:38:48.868Z,7.18
2023-03-16T09:42:04.620Z,6.85
2023-03-16T09:45:29.269Z,9.10
2023-03-16T09:48:35.851Z,7.78
2023-03-16T09:51:44.933Z,6.72
2023-03-16T09:55:16.386Z,8.20
2023-03-16T09:58:22.626Z,9.10
2023-03-16T10:01:58.831Z,7.37
2023-03-16T10:05:23.209Z,8.95
2023-03-16T10:08:33.166Z,5.20
2023-03-16T10:11:42.858Z,7.45
2023-03-16T10:14:56.815Z,7.22
2023-03-16T10:18:06.743Z,6.83
2023-03-16T10:21:18.560Z,6.82
2023-03-16T10:24:25.494Z,6.82
2023-03-16T10:27:36.779Z,5.25
2023-03-16T10:30:42.835Z,7.40
2023-03-16T10:33:46.038Z,5.53
2023-03-16T10:36:50.291Z,7.25
2023-03-16T10:39:53.002Z,7.15
2023-03-16T10:42:56.138Z,6.80
2023-03-16T10:46:02.544Z,5.37
2023-03-16T10:49:05.980Z,8.00
2023-03-16T10:52:31.718Z,6.12
2023-03-16T10:55:43.851Z,5.55
2023-03-16T10:58:47.044Z,5.25
2023-03-16T11:01:50.346Z,3.92
2023-03-16T11:04:54.654Z,7.47
2023-03-16T11:08:23.551Z,5.55
2023-03-16T11:11:34.072Z,4.60
2023-03-16T11:14:37.471Z,4.65
2023-03-16T11:17:49.930Z,6.15
2023-03-16T11:20:55.399Z,6.07
2023-03-16T11:24:00.061Z,5.00
2023-03-16T11:27:08.762Z,5.43
2023-03-16T11:30:12.026Z,6.47
2023-03-16T11:33:15.754Z,7.85
2023-03-16T11:36:35.956Z,5.83
2023-03-16T11:39:57.834Z,6.80
2023-03-16T11:43:20.369Z,4.35
2023-03-16T11:46:46.435Z,4.70
2023-03-16T11:50:15.130Z,4.22
2023-03-16T11:53:24.357Z,4.70
2023-03-16T11:57:14.814Z,4.37
2023-03-16T12:00:45.759Z,4.15
2023-03-16T12:04:20.867Z,7.93
2023-03-16T12:07:52.162Z,7.43
2023-03-16T12:11:04.564Z,3.93
2023-03-16T12:14:34.216Z,7.40
2023-03-16T12:17:38.220Z,6.90
2023-03-16T12:21:06.414Z,8.25
2023-03-16T12:24:34.076Z,8.88
2023-03-16T12:27:41.421Z,10.03
2023-03-16T12:30:53.518Z,4.18
2023-03-16T12:34:02.200Z,5.78
2023-03-16T12:37:17.261Z,6.00
2023-03-16T12:40:31.876Z,7.25
2023-03-16T12:43:50.577Z,6.40
2023-03-16T12:47:15.523Z,5.85
2023-03-16T12:50:20.907Z,7.62
2023-03-16T12:53:53.386Z,5.70
2023-03-16T12:57:09.897Z,4.25
2023-03-16T13:00:15.084Z,4.93
2023-03-16T13:03:22.503Z,6.00
2023-03-16T13:06:25.417Z,7.47
2023-03-16T13:09:32.289Z,7.78
2023-03-16T13:12:41.960Z,6.70
2023-03-16T13:15:47.693Z,4.83
2023-03-16T13:18:52.805Z,5.30
2023-03-16T13:22:05.602Z,5.03
2023-03-16T13:25:31.060Z,5.60
2023-03-16T13:28:37.969Z,12.55
2023-03-16T13:31:43.798Z,8.50
2023-03-16T13:34:53.387Z,5.60
2023-03-16T13:38:06.008Z,6.25
2023-03-16T13:41:11.946Z,4.12
2023-03-16T13:44:15.764Z,4.87
2023-03-16T13:47:21.714Z,6.37
2023-03-16T13:50:24.805Z,6.47
2023-03-16T13:53:31.714Z,6.53
2023-03-16T13:56:35.261Z,4.80
2023-03-16T13:59:38.586Z,5.78
2023-03-16T14:02:43.853Z,5.63
2023-03-16T14:05:47.830Z,14.10
2023-03-16T14:08:54.297Z,6.50
2023-03-16T14:11:58.062Z,7.60
2023-03-16T14:15:00.884Z,4.78
2023-03-16T14:18:21.729Z,6.23
2023-03-16T14:21:27.601Z,6.25
2023-03-16T14:24:35.059Z,10.88
2023-03-16T14:27:43.365Z,4.78
2023-03-16T14:30:55.370Z,5.93
2023-03-16T14:34:04.141Z,5.27
2023-03-16T14:37:09.819Z,5.60
2023-03-16T14:40:34.687Z,9.40
2023-03-16T14:43:41.401Z,6.50
2023-03-16T14:46:44.269Z,7.72
2023-03-16T14:49:47.701Z,5.63
2023-03-16T14:52:51.614Z,7.20
2023-03-16T14:55:56.034Z,5.97
2023-03-16T14:58:58.714Z,5.65
2023-03-16T15:02:04.456Z,5.43
2023-03-16T15:05:09.115Z,7.43
2023-03-16T15:08:20.281Z,5.15
2023-03-16T15:11:24.856Z,5.47
2023-03-16T15:14:46.812Z,4.45
2023-03-16T15:17:52.069Z,10.45
2023-03-16T15:20:55.494Z,5.90
2023-03-16T15:24:03.143Z,9.07
2023-03-16T15:27:21.283Z,5.60
2023-03-16T15:30:26.904Z,7.28
2023-03-16T15:33:30.115Z,6.50
2023-03-16T15:36:32.988Z,8.37
2023-03-16T15:39:36.355Z,8.82
2023-03-16T15:42:39.139Z,8.23
2023-03-16T15:45:42.247Z,6.60
2023-03-16T15:48:45.042Z,6.97
2023-03-16T15:51:48.115Z,6.10
2023-03-16T15:54:51.500Z,9.23
2023-03-16T15:58:00.712Z,8.13
2023-03-16T16:01:05.482Z,7.20
2023-03-16T16:04:14.593Z,5.70
2023-03-16T16:07:17.474Z,6.77
2023-03-16T16:10:20.928Z,5.60
2023-03-16T16:13:42.936Z,6.62
2023-03-16T16:16:47.697Z,5.53
2023-03-16T16:19:50.641Z,8.15
2023-03-16T16:22:56.003Z,6.70
2023-03-16T16:26:07.544Z,6.20
2023-03-16T16:29:32.315Z,7.18
2023-03-16T16:32:35.063Z,12.07
2023-03-16T16:35:38.780Z,5.33
2023-03-16T16:38:41.916Z,7.12
2023-03-16T16:41:46.252Z,6.43
2023-03-16T16:44:49.247Z,6.28
2023-03-16T16:47:56.547Z,8.67
2023-03-16T16:51:01.616Z,6.30
2023-03-16T16:54:15.976Z,6.50
2023-03-16T16:57:20.907Z,5.70
2023-03-16T17:00:26.246Z,11.57
2023-03-16T17:03:30.799Z,8.43
2023-03-16T17:06:34.542Z,6.80
2023-03-16T17:09:37.557Z,6.55
2023-03-16T17:12:41.238Z,8.73
2023-03-16T17:15:45.809Z,6.18
2023-03-16T17:18:50.177Z,5.93
2023-03-16T17:21:55.678Z,8.17
2023-03-16T17:25:02.205Z,7.65
2023-03-16T17:28:05.857Z,6.60
2023-03-16T17:31:11.920Z,9.15
2023-03-16T17:34:16.566Z,7.83
2023-03-16T17:37:22.857Z,8.53
2023-03-16T17:40:26.552Z,10.55
2023-03-16T17:43:32.526Z,9.20
2023-03-16T17:46:36.633Z,15.93
2023-03-16T17:49:49.140Z,13.73
2023-03-16T17:52:53.836Z,39.03
2023-03-16T17:55:58.510Z,50.28
2023-03-16T17:59:06.624Z,71.32
2023-03-16T18:02:45.147Z,46.13
2023-03-16T18:05:52.814Z,47.40
2023-03-16T18:08:57.642Z,55.37
2023-03-16T18:12:02.290Z,58.53
2023-03-16T18:15:07.479Z,125.35
2023-03-16T18:18:22.092Z,60.03
2023-03-16T18:21:27.350Z,46.53
2023-03-16T18:24:32.579Z,48.87
2023-03-16T18:27:38.765Z,55.05
2023-03-16T18:30:52.999Z,85.57
2023-03-16T18:34:01.459Z,127.35
2023-03-16T18:37:18.590Z,63.70
2023-03-16T18:40:25.418Z,66.57
2023-03-16T18:43:30.468Z,63.80
2023-03-16T18:46:39.345Z,72.40
2023-03-16T18:49:48.003Z,61.45
2023-03-16T18:52:53.284Z,58.60
2023-03-16T18:56:01.992Z,53.10
2023-03-16T18:59:06.111Z,54.88
2023-03-16T19:02:43.301Z,86.22
2023-03-16T19:05:51.002Z,64.80
2023-03-16T19:09:05.804Z,70.00
2023-03-16T19:12:16.576Z,60.57
2023-03-16T19:15:26.447Z,64.57
2023-03-16T19:18:31.303Z,60.63
2023-03-16T19:21:36.745Z,60.58
2023-03-16T19:24:50.497Z,63.17
2023-03-16T19:27:56.960Z,64.95
2023-03-16T19:31:27.903Z,59.45
2023-03-16T19:34:32.971Z,70.68
2023-03-16T19:37:38.118Z,89.47
2023-03-16T19:40:45.915Z,114.10
2023-03-16T19:43:51.495Z,93.65
2023-03-16T19:46:56.956Z,119.45
2023-03-16T19:50:03.386Z,116.37
2023-03-16T19:53:17.580Z,153.30
2023-03-16T19:56:25.587Z,96.77
2023-03-16T19:59:34.861Z,96.32
2023-03-16T20:02:43.018Z,78.45
2023-03-16T20:05:54.635Z,55.15
2023-03-16T20:08:58.941Z,57.72
2023-03-16T20:12:04.617Z,110.50
2023-03-16T20:15:18.731Z,85.15
2023-03-16T20:18:22.597Z,74.00
2023-03-16T20:21:27.553Z,71.57
2023-03-16T20:24:32.412Z,60.92
2023-03-16T20:27:37.306Z,62.87
2023-03-16T20:30:42.309Z,87.93
2023-03-16T20:33:48.309Z,88.60
2023-03-16T20:36:56.515Z,51.67
2023-03-16T20:40:00.854Z,46.37
2023-03-16T20:43:21.360Z,42.57
2023-03-16T20:46:29.270Z,48.13
2023-03-16T20:49:37.428Z,37.50
2023-03-16T20:52:42.429Z,38.20
2023-03-16T20:55:49.020Z,35.63
2023-03-16T20:58:56.563Z,34.70
2023-03-16T21:02:02.336Z,47.30
2023-03-16T21:05:08.512Z,43.15
2023-03-16T21:08:13.289Z,47.83
2023-03-16T21:11:25.801Z,43.30
2023-03-16T21:14:29.832Z,55.07
2023-03-16T21:17:36.737Z,89.47
2023-03-16T21:20:40.173Z,59.17
2023-03-16T21:23:43.618Z,38.78
2023-03-16T21:26:47.683Z,43.78
2023-03-16T21:29:51.119Z,40.23
2023-03-16T21:32:56.150Z,32.70
2023-03-16T21:36:01.494Z,28.02
2023-03-16T21:39:18.130Z,30.40
2023-03-16T21:42:21.567Z,28.42
2023-03-16T21:45:25.853Z,32.83
2023-03-16T21:48:36.573Z,30.62
2023-03-16T21:51:40.377Z,28.60
2023-03-16T21:54:43.218Z,36.58
2023-03-16T21:57:47.109Z,25.65
2023-03-16T22:00:51.965Z,28.13
2023-03-16T22:04:14.431Z,24.60
2023-03-16T22:07:17.714Z,30.52
2023-03-16T22:10:21.122Z,27.33
2023-03-16T22:13:24.671Z,41.00
2023-03-16T22:16:31.972Z,41.80
2023-03-16T22:19:34.909Z,36.33
2023-03-16T22:22:38.020Z,35.83
2023-03-16T22:25:40.758Z,39.10
2023-03-16T22:28:44.653Z,33.03
2023-03-16T22:31:48.940Z,35.83
2023-03-16T22:34:56.264Z,40.53
2023-03-16T22:38:03.563Z,34.10
2023-03-16T22:41:07.795Z,38.80
2023-03-16T22:44:22.396Z,43.37
2023-03-16T22:47:33.747Z,38.15
2023-03-16T22:50:36.826Z,45.90
2023-03-16T22:53:44.139Z,39.30
2023-03-16T22:56:47.962Z,34.72
2023-03-16T22:59:52.001Z,35.75
2023-03-16T23:02:56.362Z,38.17
2023-03-16T23:05:59.374Z,31.48
2023-03-16T23:09:02.520Z,31.37
2023-03-16T23:12:14.109Z,33.08
2023-03-16T23:15:21.074Z,34.17
2023-03-16T23:18:26.342Z,34.47
2023-03-16T23:21:30.053Z,36.97
2023-03-16T23:24:34.788Z,28.40
2023-03-16T23:27:37.800Z,29.58
2023-03-16T23:30:40.949Z,24.30
2023-03-16T23:33:44.196Z,21.55
2023-03-16T23:36:47.896Z,20.13
2023-03-16T23:39:50.700Z,18.77
2023-03-16T23:42:55.845Z,16.05
2023-03-16T23:45:58.780Z,11.73
2023-03-16T23:49:04.084Z,10.43
2023-03-16T23:52:07.570Z,8.93
2023-03-16T23:55:14.468Z,5.90
2023-03-16T23:58:17.975Z,12.13
